sensor_id;sensor_type;location;lat;lon;timestamp;temperature;humidity
7472;DHT22;3777;48.722;8.110;2023-03-21T00:02:25;10.50;99.90
7472;DHT22;3777;48.722;8.110;2023-03-21T00:04:52;10.60;99.90
7472;DHT22;3777;48.722;8.110;2023-03-21T00:07:19;10.60;99.90
7472;DHT22;3777;48.722;8.110;2023-03-21T00:09:46;10.70;99.90
7472;DHT22;3777;48.722;8.110;2023-03-21T00:12:13;10.70;99.90
7472;DHT22;3777;48.722;8.110;2023-03-21T00:14:41;10.70;99.90
7472;DHT22;3777;48.722;8.110;2023-03-21T00:17:10;10.70;99.90
7472;DHT22;3777;48.722;8.110;2023-03-21T00:19:37;10.80;99.90
7472;DHT22;3777;48.722;8.110;2023-03-21T00:22:06;10.80;99.90
7472;DHT22;3777;48.722;8.110;2023-03-21T00:24:33;10.80;99.90
7472;DHT22;3777;48.722;8.110;2023-03-21T00:27:00;10.80;99.90
7472;DHT22;3777;48.722;8.110;2023-03-21T00:29:27;10.80;99.90
7472;DHT22;3777;48.722;8.110;2023-03-21T00:31:54;10.70;99.90
7472;DHT22;3777;48.722;8.110;2023-03-21T00:34:22;10.70;99.90
7472;DHT22;3777;48.722;8.110;2023-03-21T00:36:49;10.70;99.90
7472;DHT22;3777;48.722;8.110;2023-03-21T00:39:16;10.60;99.90
7472;DHT22;3777;48.722;8.110;2023-03-21T00:41:43;10.60;99.90
7472;DHT22;3777;48.722;8.110;2023-03-21T00:44:10;10.50;99.90
7472;DHT22;3777;48.722;8.110;2023-03-21T00:46:40;10.50;99.90
7472;DHT22;3777;48.722;8.110;2023-03-21T00:49:07;10.40;99.90
7472;DHT22;3777;48.722;8.110;2023-03-21T00:51:36;10.30;99.90
7472;DHT22;3777;48.722;8.110;2023-03-21T00:54:03;10.30;99.90
7472;DHT22;3777;48.722;8.110;2023-03-21T00:56:30;10.20;99.90
7472;DHT22;3777;48.722;8.110;2023-03-21T00:58:57;10.10;99.90
7472;DHT22;3777;48.722;8.110;2023-03-21T01:01:24;10.00;99.90
7472;DHT22;3777;48.722;8.110;2023-03-21T01:03:56;10.00;99.90
7472;DHT22;3777;48.722;8.110;2023-03-21T01:06:28;9.90;99.90
7472;DHT22;3777;48.722;8.110;2023-03-21T01:08:56;9.90;99.90
7472;DHT22;3777;48.722;8.110;2023-03-21T01:11:25;9.90;99.90
7472;DHT22;3777;48.722;8.110;2023-03-21T01:13:53;9.90;99.90
7472;DHT22;3777;48.722;8.110;2023-03-21T01:16:20;9.80;99.90
7472;DHT22;3777;48.722;8.110;2023-03-21T01:18:47;9.80;99.90
7472;DHT22;3777;48.722;8.110;2023-03-21T01:21:15;9.70;99.90
7472;DHT22;3777;48.722;8.110;2023-03-21T01:23:42;9.70;99.90
7472;DHT22;3777;48.722;8.110;2023-03-21T01:26:12;9.60;99.90
7472;DHT22;3777;48.722;8.110;2023-03-21T01:28:40;9.60;99.90
7472;DHT22;3777;48.722;8.110;2023-03-21T01:31:09;9.50;99.90
7472;DHT22;3777;48.722;8.110;2023-03-21T01:33:36;9.40;99.90
7472;DHT22;3777;48.722;8.110;2023-03-21T01:36:04;9.30;99.90
7472;DHT22;3777;48.722;8.110;2023-03-21T01:38:31;9.20;99.90
7472;DHT22;3777;48.722;8.110;2023-03-21T01:41:00;9.10;99.90
7472;DHT22;3777;48.722;8.110;2023-03-21T01:43:30;9.00;99.90
7472;DHT22;3777;48.722;8.110;2023-03-21T01:46:16;9.00;99.90
7472;DHT22;3777;48.722;8.110;2023-03-21T01:48:49;8.90;99.90
7472;DHT22;3777;48.722;8.110;2023-03-21T01:51:17;8.80;99.90
7472;DHT22;3777;48.722;8.110;2023-03-21T01:53:45;8.80;99.90
7472;DHT22;3777;48.722;8.110;2023-03-21T01:56:17;8.70;99.90
7472;DHT22;3777;48.722;8.110;2023-03-21T01:58:47;8.70;99.90
7472;DHT22;3777;48.722;8.110;2023-03-21T02:01:15;8.60;99.90
7472;DHT22;3777;48.722;8.110;2023-03-21T02:03:45;8.60;99.90
7472;DHT22;3777;48.722;8.110;2023-03-21T02:06:29;8.60;99.90
7472;DHT22;3777;48.722;8.110;2023-03-21T02:09:01;8.50;99.90
7472;DHT22;3777;48.722;8.110;2023-03-21T02:11:29;8.50;99.90
7472;DHT22;3777;48.722;8.110;2023-03-21T02:13:59;8.50;99.90
7472;DHT22;3777;48.722;8.110;2023-03-21T02:16:33;8.50;99.90
7472;DHT22;3777;48.722;8.110;2023-03-21T02:19:20;8.50;99.90
7472;DHT22;3777;48.722;8.110;2023-03-21T02:25:23;8.40;99.90
7472;DHT22;3777;48.722;8.110;2023-03-21T02:27:59;8.40;99.90
7472;DHT22;3777;48.722;8.110;2023-03-21T02:30:52;8.40;99.90
7472;DHT22;3777;48.722;8.110;2023-03-21T02:36:42;8.30;99.90
7472;DHT22;3777;48.722;8.110;2023-03-21T02:39:12;8.30;99.90
7472;DHT22;3777;48.722;8.110;2023-03-21T02:41:47;8.20;99.90
7472;DHT22;3777;48.722;8.110;2023-03-21T02:44:20;8.20;99.90
7472;DHT22;3777;48.722;8.110;2023-03-21T02:46:51;8.20;99.90
7472;DHT22;3777;48.722;8.110;2023-03-21T02:49:23;8.10;99.90
7472;DHT22;3777;48.722;8.110;2023-03-21T02:51:56;8.10;99.90
7472;DHT22;3777;48.722;8.110;2023-03-21T02:54:25;8.10;99.90
7472;DHT22;3777;48.722;8.110;2023-03-21T02:56:54;8.00;99.90
7472;DHT22;3777;48.722;8.110;2023-03-21T02:59:24;8.00;99.90
7472;DHT22;3777;48.722;8.110;2023-03-21T03:01:53;8.00;99.90
7472;DHT22;3777;48.722;8.110;2023-03-21T03:04:23;8.00;99.90
7472;DHT22;3777;48.722;8.110;2023-03-21T03:07:16;8.00;99.90
7472;DHT22;3777;48.722;8.110;2023-03-21T03:09:59;7.90;99.90
7472;DHT22;3777;48.722;8.110;2023-03-21T03:12:36;7.90;99.90
7472;DHT22;3777;48.722;8.110;2023-03-21T03:15:13;7.90;99.90
7472;DHT22;3777;48.722;8.110;2023-03-21T03:17:49;7.80;99.90
7472;DHT22;3777;48.722;8.110;2023-03-21T03:20:35;7.80;99.90
7472;DHT22;3777;48.722;8.110;2023-03-21T03:23:12;7.70;99.90
7472;DHT22;3777;48.722;8.110;2023-03-21T03:25:44;7.70;99.90
7472;DHT22;3777;48.722;8.110;2023-03-21T03:28:16;7.60;99.90
7472;DHT22;3777;48.722;8.110;2023-03-21T03:30:47;7.60;99.90
7472;DHT22;3777;48.722;8.110;2023-03-21T03:33:15;7.50;99.90
7472;DHT22;3777;48.722;8.110;2023-03-21T03:35:49;7.40;99.90
7472;DHT22;3777;48.722;8.110;2023-03-21T03:38:19;7.40;99.90
7472;DHT22;3777;48.722;8.110;2023-03-21T03:40:50;7.40;99.90
7472;DHT22;3777;48.722;8.110;2023-03-21T03:43:20;7.30;99.90
7472;DHT22;3777;48.722;8.110;2023-03-21T03:45:52;7.30;99.90
7472;DHT22;3777;48.722;8.110;2023-03-21T03:48:24;7.20;99.90
7472;DHT22;3777;48.722;8.110;2023-03-21T03:50:54;7.20;99.90
7472;DHT22;3777;48.722;8.110;2023-03-21T03:53:31;7.20;99.90
7472;DHT22;3777;48.722;8.110;2023-03-21T03:55:59;7.10;99.90
7472;DHT22;3777;48.722;8.110;2023-03-21T03:58:28;7.10;99.90
7472;DHT22;3777;48.722;8.110;2023-03-21T04:00:56;7.10;99.90
7472;DHT22;3777;48.722;8.110;2023-03-21T04:03:23;7.10;99.90
7472;DHT22;3777;48.722;8.110;2023-03-21T04:05:50;7.10;99.90
7472;DHT22;3777;48.722;8.110;2023-03-21T04:08:18;7.10;99.90
7472;DHT22;3777;48.722;8.110;2023-03-21T04:10:49;7.10;99.90
7472;DHT22;3777;48.722;8.110;2023-03-21T04:13:16;7.10;99.90
7472;DHT22;3777;48.722;8.110;2023-03-21T04:15:43;7.10;99.90
7472;DHT22;3777;48.722;8.110;2023-03-21T04:18:10;7.10;99.90
7472;DHT22;3777;48.722;8.110;2023-03-21T04:20:37;7.10;99.90
7472;DHT22;3777;48.722;8.110;2023-03-21T04:23:04;7.10;99.90
7472;DHT22;3777;48.722;8.110;2023-03-21T04:25:32;7.20;99.90
7472;DHT22;3777;48.722;8.110;2023-03-21T04:28:01;7.20;99.90
7472;DHT22;3777;48.722;8.110;2023-03-21T04:30:28;7.20;99.90
7472;DHT22;3777;48.722;8.110;2023-03-21T04:32:58;7.30;99.90
7472;DHT22;3777;48.722;8.110;2023-03-21T04:35:26;7.30;99.90
7472;DHT22;3777;48.722;8.110;2023-03-21T04:37:54;7.30;99.90
7472;DHT22;3777;48.722;8.110;2023-03-21T04:40:21;7.30;99.90
7472;DHT22;3777;48.722;8.110;2023-03-21T04:42:50;7.40;99.90
7472;DHT22;3777;48.722;8.110;2023-03-21T04:45:18;7.40;99.90
7472;DHT22;3777;48.722;8.110;2023-03-21T04:47:45;7.40;99.90
7472;DHT22;3777;48.722;8.110;2023-03-21T04:50:12;7.50;99.90
7472;DHT22;3777;48.722;8.110;2023-03-21T04:52:40;7.50;99.90
7472;DHT22;3777;48.722;8.110;2023-03-21T04:55:07;7.50;99.90
7472;DHT22;3777;48.722;8.110;2023-03-21T04:57:36;7.50;99.90
7472;DHT22;3777;48.722;8.110;2023-03-21T05:00:05;7.40;99.90
7472;DHT22;3777;48.722;8.110;2023-03-21T05:02:37;7.40;99.90
7472;DHT22;3777;48.722;8.110;2023-03-21T05:05:07;7.40;99.90
7472;DHT22;3777;48.722;8.110;2023-03-21T05:07:36;7.40;99.90
7472;DHT22;3777;48.722;8.110;2023-03-21T05:10:04;7.30;99.90
7472;DHT22;3777;48.722;8.110;2023-03-21T05:12:31;7.30;99.90
7472;DHT22;3777;48.722;8.110;2023-03-21T05:14:58;7.20;99.90
7472;DHT22;3777;48.722;8.110;2023-03-21T05:17:25;7.20;99.90
7472;DHT22;3777;48.722;8.110;2023-03-21T05:19:54;7.20;99.90
7472;DHT22;3777;48.722;8.110;2023-03-21T05:22:22;7.20;99.90
7472;DHT22;3777;48.722;8.110;2023-03-21T05:24:51;7.20;99.90
7472;DHT22;3777;48.722;8.110;2023-03-21T05:27:21;7.10;99.90
7472;DHT22;3777;48.722;8.110;2023-03-21T05:30:01;7.10;99.90
7472;DHT22;3777;48.722;8.110;2023-03-21T05:32:28;7.10;99.90
7472;DHT22;3777;48.722;8.110;2023-03-21T05:34:56;7.10;99.90
7472;DHT22;3777;48.722;8.110;2023-03-21T05:37:23;7.00;99.90
7472;DHT22;3777;48.722;8.110;2023-03-21T05:39:51;7.00;99.90
7472;DHT22;3777;48.722;8.110;2023-03-21T05:42:18;7.00;99.90
7472;DHT22;3777;48.722;8.110;2023-03-21T05:44:45;7.00;99.90
7472;DHT22;3777;48.722;8.110;2023-03-21T05:47:13;7.00;99.90
7472;DHT22;3777;48.722;8.110;2023-03-21T05:49:40;6.90;99.90
7472;DHT22;3777;48.722;8.110;2023-03-21T05:52:09;6.90;99.90
7472;DHT22;3777;48.722;8.110;2023-03-21T05:54:36;7.00;99.90
7472;DHT22;3777;48.722;8.110;2023-03-21T05:57:03;6.90;99.90
7472;DHT22;3777;48.722;8.110;2023-03-21T05:59:31;7.00;99.90
7472;DHT22;3777;48.722;8.110;2023-03-21T06:01:58;7.00;99.90
7472;DHT22;3777;48.722;8.110;2023-03-21T06:04:25;7.00;99.90
7472;DHT22;3777;48.722;8.110;2023-03-21T06:06:52;7.10;99.90
7472;DHT22;3777;48.722;8.110;2023-03-21T06:09:21;7.10;99.90
7472;DHT22;3777;48.722;8.110;2023-03-21T06:11:50;7.20;99.90
7472;DHT22;3777;48.722;8.110;2023-03-21T06:14:18;7.20;99.90
7472;DHT22;3777;48.722;8.110;2023-03-21T06:16:45;7.30;99.90
7472;DHT22;3777;48.722;8.110;2023-03-21T06:19:12;7.40;99.90
7472;DHT22;3777;48.722;8.110;2023-03-21T06:21:39;7.50;99.90
7472;DHT22;3777;48.722;8.110;2023-03-21T06:24:06;7.60;99.90
7472;DHT22;3777;48.722;8.110;2023-03-21T06:26:35;7.70;99.90
7472;DHT22;3777;48.722;8.110;2023-03-21T06:29:02;8.00;99.90
7472;DHT22;3777;48.722;8.110;2023-03-21T06:31:29;8.10;99.90
7472;DHT22;3777;48.722;8.110;2023-03-21T06:33:56;8.30;99.90
7472;DHT22;3777;48.722;8.110;2023-03-21T06:36:23;8.50;99.90
7472;DHT22;3777;48.722;8.110;2023-03-21T06:38:50;8.50;99.90
7472;DHT22;3777;48.722;8.110;2023-03-21T06:41:17;8.70;99.90
7472;DHT22;3777;48.722;8.110;2023-03-21T06:43:46;8.80;99.90
7472;DHT22;3777;48.722;8.110;2023-03-21T06:46:14;8.90;99.90
7472;DHT22;3777;48.722;8.110;2023-03-21T06:48:40;9.10;99.90
7472;DHT22;3777;48.722;8.110;2023-03-21T06:51:10;9.00;99.90
7472;DHT22;3777;48.722;8.110;2023-03-21T06:53:38;9.10;99.90
7472;DHT22;3777;48.722;8.110;2023-03-21T06:56:07;9.20;99.90
7472;DHT22;3777;48.722;8.110;2023-03-21T06:58:34;9.50;99.90
7472;DHT22;3777;48.722;8.110;2023-03-21T07:01:03;9.80;99.90
7472;DHT22;3777;48.722;8.110;2023-03-21T07:03:30;10.00;99.90
7472;DHT22;3777;48.722;8.110;2023-03-21T07:06:02;10.00;99.90
7472;DHT22;3777;48.722;8.110;2023-03-21T07:08:29;10.20;99.90
7472;DHT22;3777;48.722;8.110;2023-03-21T07:10:56;10.40;99.90
7472;DHT22;3777;48.722;8.110;2023-03-21T07:13:23;10.50;99.90
7472;DHT22;3777;48.722;8.110;2023-03-21T07:15:51;10.50;99.90
7472;DHT22;3777;48.722;8.110;2023-03-21T07:18:19;10.50;99.90
7472;DHT22;3777;48.722;8.110;2023-03-21T07:20:47;10.70;99.90
7472;DHT22;3777;48.722;8.110;2023-03-21T07:23:16;10.80;99.90
7472;DHT22;3777;48.722;8.110;2023-03-21T07:25:43;10.80;99.90
7472;DHT22;3777;48.722;8.110;2023-03-21T07:28:10;10.50;99.90
7472;DHT22;3777;48.722;8.110;2023-03-21T07:30:37;10.80;99.90
7472;DHT22;3777;48.722;8.110;2023-03-21T07:33:04;11.10;99.90
7472;DHT22;3777;48.722;8.110;2023-03-21T07:35:33;11.40;99.90
7472;DHT22;3777;48.722;8.110;2023-03-21T07:38:02;11.60;99.90
7472;DHT22;3777;48.722;8.110;2023-03-21T07:40:29;12.00;99.90
7472;DHT22;3777;48.722;8.110;2023-03-21T07:42:56;12.30;99.90
7472;DHT22;3777;48.722;8.110;2023-03-21T07:45:23;12.60;99.90
7472;DHT22;3777;48.722;8.110;2023-03-21T07:47:51;13.00;99.90
7472;DHT22;3777;48.722;8.110;2023-03-21T07:50:19;13.30;99.90
7472;DHT22;3777;48.722;8.110;2023-03-21T07:52:47;13.30;99.90
7472;DHT22;3777;48.722;8.110;2023-03-21T07:55:15;13.30;99.90
7472;DHT22;3777;48.722;8.110;2023-03-21T07:57:43;13.50;99.90
7472;DHT22;3777;48.722;8.110;2023-03-21T08:00:11;13.70;99.90
7472;DHT22;3777;48.722;8.110;2023-03-21T08:02:48;13.70;99.90
7472;DHT22;3777;48.722;8.110;2023-03-21T08:05:19;13.80;99.90
7472;DHT22;3777;48.722;8.110;2023-03-21T08:07:47;14.00;99.90
7472;DHT22;3777;48.722;8.110;2023-03-21T08:10:15;14.10;99.90
7472;DHT22;3777;48.722;8.110;2023-03-21T08:12:42;14.20;99.90
7472;DHT22;3777;48.722;8.110;2023-03-21T08:15:10;14.30;99.90
7472;DHT22;3777;48.722;8.110;2023-03-21T08:17:38;14.30;99.90
7472;DHT22;3777;48.722;8.110;2023-03-21T08:20:06;14.20;99.90
7472;DHT22;3777;48.722;8.110;2023-03-21T08:22:35;14.30;99.90
7472;DHT22;3777;48.722;8.110;2023-03-21T08:25:05;14.60;99.90
7472;DHT22;3777;48.722;8.110;2023-03-21T08:27:33;14.80;99.90
7472;DHT22;3777;48.722;8.110;2023-03-21T08:30:00;14.90;99.90
7472;DHT22;3777;48.722;8.110;2023-03-21T08:32:28;15.00;99.90
7472;DHT22;3777;48.722;8.110;2023-03-21T08:34:57;15.10;99.90
7472;DHT22;3777;48.722;8.110;2023-03-21T08:37:25;15.10;99.90
7472;DHT22;3777;48.722;8.110;2023-03-21T08:39:52;15.00;99.90
7472;DHT22;3777;48.722;8.110;2023-03-21T08:42:21;15.00;99.90
7472;DHT22;3777;48.722;8.110;2023-03-21T08:44:48;15.10;99.90
7472;DHT22;3777;48.722;8.110;2023-03-21T08:47:15;15.00;99.90
7472;DHT22;3777;48.722;8.110;2023-03-21T08:49:42;14.70;99.90
7472;DHT22;3777;48.722;8.110;2023-03-21T08:52:10;14.80;99.90
7472;DHT22;3777;48.722;8.110;2023-03-21T08:54:37;14.90;99.90
7472;DHT22;3777;48.722;8.110;2023-03-21T08:57:06;15.00;99.90
7472;DHT22;3777;48.722;8.110;2023-03-21T08:59:36;14.50;99.90
7472;DHT22;3777;48.722;8.110;2023-03-21T09:02:04;14.30;99.90
7472;DHT22;3777;48.722;8.110;2023-03-21T09:04:31;14.60;99.90
7472;DHT22;3777;48.722;8.110;2023-03-21T09:06:58;14.80;99.90
7472;DHT22;3777;48.722;8.110;2023-03-21T09:09:29;14.90;99.90
7472;DHT22;3777;48.722;8.110;2023-03-21T09:11:56;14.90;99.90
7472;DHT22;3777;48.722;8.110;2023-03-21T09:14:24;14.90;99.90
7472;DHT22;3777;48.722;8.110;2023-03-21T09:16:52;15.10;99.90
7472;DHT22;3777;48.722;8.110;2023-03-21T09:19:19;14.90;99.90
7472;DHT22;3777;48.722;8.110;2023-03-21T09:21:46;14.60;99.90
7472;DHT22;3777;48.722;8.110;2023-03-21T09:24:13;14.70;99.90
7472;DHT22;3777;48.722;8.110;2023-03-21T09:26:42;14.80;99.90
7472;DHT22;3777;48.722;8.110;2023-03-21T09:29:09;15.00;99.90
7472;DHT22;3777;48.722;8.110;2023-03-21T09:31:36;15.10;99.90
7472;DHT22;3777;48.722;8.110;2023-03-21T09:34:05;14.50;99.90
7472;DHT22;3777;48.722;8.110;2023-03-21T09:36:32;14.30;99.90
7472;DHT22;3777;48.722;8.110;2023-03-21T09:39:01;14.40;99.90
7472;DHT22;3777;48.722;8.110;2023-03-21T09:41:43;14.50;99.90
7472;DHT22;3777;48.722;8.110;2023-03-21T09:44:28;14.10;99.90
7472;DHT22;3777;48.722;8.110;2023-03-21T09:47:02;14.10;99.90
7472;DHT22;3777;48.722;8.110;2023-03-21T09:49:34;14.40;99.90
7472;DHT22;3777;48.722;8.110;2023-03-21T09:52:08;14.70;99.90
7472;DHT22;3777;48.722;8.110;2023-03-21T09:54:39;14.50;99.90
7472;DHT22;3777;48.722;8.110;2023-03-21T09:57:15;14.60;99.90
7472;DHT22;3777;48.722;8.110;2023-03-21T09:59:47;15.20;99.90
7472;DHT22;3777;48.722;8.110;2023-03-21T10:02:28;15.20;99.90
7472;DHT22;3777;48.722;8.110;2023-03-21T10:05:11;14.60;99.90
7472;DHT22;3777;48.722;8.110;2023-03-21T10:07:41;15.30;99.90
7472;DHT22;3777;48.722;8.110;2023-03-21T10:10:14;15.20;99.90
7472;DHT22;3777;48.722;8.110;2023-03-21T10:12:43;15.10;99.90
7472;DHT22;3777;48.722;8.110;2023-03-21T10:15:15;16.00;99.90
7472;DHT22;3777;48.722;8.110;2023-03-21T10:17:48;17.00;99.90
7472;DHT22;3777;48.722;8.110;2023-03-21T10:20:20;16.60;99.90
7472;DHT22;3777;48.722;8.110;2023-03-21T10:22:49;17.50;99.90
7472;DHT22;3777;48.722;8.110;2023-03-21T10:25:18;18.20;99.90
7472;DHT22;3777;48.722;8.110;2023-03-21T10:27:47;18.40;99.90
7472;DHT22;3777;48.722;8.110;2023-03-21T10:30:31;18.30;99.90
7472;DHT22;3777;48.722;8.110;2023-03-21T10:33:02;17.00;99.90
7472;DHT22;3777;48.722;8.110;2023-03-21T10:35:32;17.40;99.90
7472;DHT22;3777;48.722;8.110;2023-03-21T10:38:02;17.90;99.90
7472;DHT22;3777;48.722;8.110;2023-03-21T10:40:29;18.00;99.90
7472;DHT22;3777;48.722;8.110;2023-03-21T10:43:15;18.10;99.90
7472;DHT22;3777;48.722;8.110;2023-03-21T10:45:44;18.60;99.90
7472;DHT22;3777;48.722;8.110;2023-03-21T10:48:11;18.80;99.90
7472;DHT22;3777;48.722;8.110;2023-03-21T10:50:40;19.00;99.90
7472;DHT22;3777;48.722;8.110;2023-03-21T10:53:15;19.20;99.90
7472;DHT22;3777;48.722;8.110;2023-03-21T10:55:45;19.40;99.90
7472;DHT22;3777;48.722;8.110;2023-03-21T10:58:16;18.80;99.90
7472;DHT22;3777;48.722;8.110;2023-03-21T11:00:54;18.30;99.90
7472;DHT22;3777;48.722;8.110;2023-03-21T11:03:26;19.00;99.90
7472;DHT22;3777;48.722;8.110;2023-03-21T11:06:00;19.90;99.90
7472;DHT22;3777;48.722;8.110;2023-03-21T11:08:29;20.20;99.90
7472;DHT22;3777;48.722;8.110;2023-03-21T11:11:00;20.50;99.90
7472;DHT22;3777;48.722;8.110;2023-03-21T11:13:33;21.10;99.90
7472;DHT22;3777;48.722;8.110;2023-03-21T11:16:05;21.70;99.90
7472;DHT22;3777;48.722;8.110;2023-03-21T11:18:32;21.70;99.90
7472;DHT22;3777;48.722;8.110;2023-03-21T11:21:08;21.80;99.90
7472;DHT22;3777;48.722;8.110;2023-03-21T11:23:39;21.80;99.90
7472;DHT22;3777;48.722;8.110;2023-03-21T11:26:10;22.10;99.90
7472;DHT22;3777;48.722;8.110;2023-03-21T11:28:39;22.70;99.90
7472;DHT22;3777;48.722;8.110;2023-03-21T11:31:07;23.60;99.90
7472;DHT22;3777;48.722;8.110;2023-03-21T11:33:36;23.90;98.90
7472;DHT22;3777;48.722;8.110;2023-03-21T11:36:25;24.40;97.80
7472;DHT22;3777;48.722;8.110;2023-03-21T11:38:56;24.30;96.30
7472;DHT22;3777;48.722;8.110;2023-03-21T11:41:24;24.40;97.40
7472;DHT22;3777;48.722;8.110;2023-03-21T11:43:54;24.10;93.10
7472;DHT22;3777;48.722;8.110;2023-03-21T11:46:22;23.80;93.20
7472;DHT22;3777;48.722;8.110;2023-03-21T11:48:50;23.30;91.10
7472;DHT22;3777;48.722;8.110;2023-03-21T11:51:26;22.90;93.30
7472;DHT22;3777;48.722;8.110;2023-03-21T11:54:00;22.60;92.10
7472;DHT22;3777;48.722;8.110;2023-03-21T11:56:32;22.30;94.50
7472;DHT22;3777;48.722;8.110;2023-03-21T11:59:16;22.00;94.80
7472;DHT22;3777;48.722;8.110;2023-03-21T12:01:54;21.90;93.90
7472;DHT22;3777;48.722;8.110;2023-03-21T12:04:41;21.60;95.00
7472;DHT22;3777;48.722;8.110;2023-03-21T12:07:27;21.50;95.20
7472;DHT22;3777;48.722;8.110;2023-03-21T12:10:10;21.20;93.40
7472;DHT22;3777;48.722;8.110;2023-03-21T12:12:45;21.10;97.60
7472;DHT22;3777;48.722;8.110;2023-03-21T12:15:20;21.20;96.70
7472;DHT22;3777;48.722;8.110;2023-03-21T12:17:57;21.10;94.40
7472;DHT22;3777;48.722;8.110;2023-03-21T12:20:36;21.00;95.80
7472;DHT22;3777;48.722;8.110;2023-03-21T12:23:22;20.90;98.50
7472;DHT22;3777;48.722;8.110;2023-03-21T12:25:55;20.90;96.20
7472;DHT22;3777;48.722;8.110;2023-03-21T12:28:34;20.90;95.10
7472;DHT22;3777;48.722;8.110;2023-03-21T12:31:10;20.80;94.50
7472;DHT22;3777;48.722;8.110;2023-03-21T12:33:51;20.80;97.00
7472;DHT22;3777;48.722;8.110;2023-03-21T12:36:29;20.70;97.50
7472;DHT22;3777;48.722;8.110;2023-03-21T12:39:08;20.50;95.60
7472;DHT22;3777;48.722;8.110;2023-03-21T12:41:43;20.60;97.00
7472;DHT22;3777;48.722;8.110;2023-03-21T12:44:12;20.50;95.40
7472;DHT22;3777;48.722;8.110;2023-03-21T12:46:44;20.50;97.40
7472;DHT22;3777;48.722;8.110;2023-03-21T12:49:16;20.40;96.20
7472;DHT22;3777;48.722;8.110;2023-03-21T12:51:47;20.50;98.70
7472;DHT22;3777;48.722;8.110;2023-03-21T12:54:22;20.60;96.60
7472;DHT22;3777;48.722;8.110;2023-03-21T12:56:55;20.70;96.10
7472;DHT22;3777;48.722;8.110;2023-03-21T12:59:32;20.60;95.20
7472;DHT22;3777;48.722;8.110;2023-03-21T13:02:13;20.60;95.30
7472;DHT22;3777;48.722;8.110;2023-03-21T13:04:45;20.60;96.50
7472;DHT22;3777;48.722;8.110;2023-03-21T13:07:16;20.50;94.40
7472;DHT22;3777;48.722;8.110;2023-03-21T13:09:46;20.50;94.80
7472;DHT22;3777;48.722;8.110;2023-03-21T13:12:30;20.50;94.40
7472;DHT22;3777;48.722;8.110;2023-03-21T13:15:12;20.50;96.00
7472;DHT22;3777;48.722;8.110;2023-03-21T13:17:47;20.50;96.70
7472;DHT22;3777;48.722;8.110;2023-03-21T13:20:21;20.50;96.70
7472;DHT22;3777;48.722;8.110;2023-03-21T13:22:50;20.60;94.60
7472;DHT22;3777;48.722;8.110;2023-03-21T13:25:20;20.60;94.00
7472;DHT22;3777;48.722;8.110;2023-03-21T13:27:52;20.60;95.40
7472;DHT22;3777;48.722;8.110;2023-03-21T13:30:21;20.70;95.00
7472;DHT22;3777;48.722;8.110;2023-03-21T13:32:54;20.60;94.70
7472;DHT22;3777;48.722;8.110;2023-03-21T13:35:23;20.70;93.60
7472;DHT22;3777;48.722;8.110;2023-03-21T13:37:55;20.70;93.50
7472;DHT22;3777;48.722;8.110;2023-03-21T13:40:27;20.80;92.60
7472;DHT22;3777;48.722;8.110;2023-03-21T13:43:00;20.90;91.30
7472;DHT22;3777;48.722;8.110;2023-03-21T13:45:31;20.80;91.60
7472;DHT22;3777;48.722;8.110;2023-03-21T13:48:01;20.90;92.40
7472;DHT22;3777;48.722;8.110;2023-03-21T13:50:34;20.90;90.90
7472;DHT22;3777;48.722;8.110;2023-03-21T13:53:29;20.90;92.00
7472;DHT22;3777;48.722;8.110;2023-03-21T13:56:19;20.80;93.20
7472;DHT22;3777;48.722;8.110;2023-03-21T13:58:58;20.70;91.30
7472;DHT22;3777;48.722;8.110;2023-03-21T14:01:36;20.70;90.60
7472;DHT22;3777;48.722;8.110;2023-03-21T14:04:10;20.60;90.00
7472;DHT22;3777;48.722;8.110;2023-03-21T14:06:43;20.60;90.00
7472;DHT22;3777;48.722;8.110;2023-03-21T14:09:17;20.50;90.00
7472;DHT22;3777;48.722;8.110;2023-03-21T14:11:46;20.40;91.30
7472;DHT22;3777;48.722;8.110;2023-03-21T14:14:14;20.30;92.40
7472;DHT22;3777;48.722;8.110;2023-03-21T14:16:43;20.20;91.70
7472;DHT22;3777;48.722;8.110;2023-03-21T14:19:10;20.10;91.50
7472;DHT22;3777;48.722;8.110;2023-03-21T14:21:45;20.10;91.40
7472;DHT22;3777;48.722;8.110;2023-03-21T14:24:13;20.10;91.00
7472;DHT22;3777;48.722;8.110;2023-03-21T14:26:44;20.00;91.50
7472;DHT22;3777;48.722;8.110;2023-03-21T14:29:19;20.00;91.40
7472;DHT22;3777;48.722;8.110;2023-03-21T14:31:47;19.90;91.40
7472;DHT22;3777;48.722;8.110;2023-03-21T14:34:15;19.90;91.40
7472;DHT22;3777;48.722;8.110;2023-03-21T14:36:43;19.80;92.30
7472;DHT22;3777;48.722;8.110;2023-03-21T14:39:13;19.80;91.30
7472;DHT22;3777;48.722;8.110;2023-03-21T14:41:47;19.70;93.10
7472;DHT22;3777;48.722;8.110;2023-03-21T14:44:23;19.70;93.90
7472;DHT22;3777;48.722;8.110;2023-03-21T14:46:53;19.70;93.40
7472;DHT22;3777;48.722;8.110;2023-03-21T14:49:23;19.70;91.60
7472;DHT22;3777;48.722;8.110;2023-03-21T14:51:52;19.60;91.70
7472;DHT22;3777;48.722;8.110;2023-03-21T14:54:21;19.50;91.70
7472;DHT22;3777;48.722;8.110;2023-03-21T14:56:51;19.50;90.40
7472;DHT22;3777;48.722;8.110;2023-03-21T14:59:22;19.50;91.90
7472;DHT22;3777;48.722;8.110;2023-03-21T15:01:51;19.50;94.20
7472;DHT22;3777;48.722;8.110;2023-03-21T15:04:20;19.50;94.20
7472;DHT22;3777;48.722;8.110;2023-03-21T15:06:53;19.40;92.80
7472;DHT22;3777;48.722;8.110;2023-03-21T15:09:23;19.30;93.20
7472;DHT22;3777;48.722;8.110;2023-03-21T15:11:53;19.30;94.00
7472;DHT22;3777;48.722;8.110;2023-03-21T15:14:27;19.30;93.60
7472;DHT22;3777;48.722;8.110;2023-03-21T15:16:55;19.30;94.50
7472;DHT22;3777;48.722;8.110;2023-03-21T15:19:31;19.20;94.90
7472;DHT22;3777;48.722;8.110;2023-03-21T15:22:05;19.20;95.10
7472;DHT22;3777;48.722;8.110;2023-03-21T15:24:37;19.10;95.20
7472;DHT22;3777;48.722;8.110;2023-03-21T15:27:07;19.00;95.50
7472;DHT22;3777;48.722;8.110;2023-03-21T15:29:40;18.90;95.70
7472;DHT22;3777;48.722;8.110;2023-03-21T15:32:13;18.90;96.80
7472;DHT22;3777;48.722;8.110;2023-03-21T15:34:42;18.90;96.80
7472;DHT22;3777;48.722;8.110;2023-03-21T15:37:15;18.80;96.90
7472;DHT22;3777;48.722;8.110;2023-03-21T15:39:42;18.70;96.40
7472;DHT22;3777;48.722;8.110;2023-03-21T15:42:26;18.70;96.00
7472;DHT22;3777;48.722;8.110;2023-03-21T15:44:57;18.60;96.70
7472;DHT22;3777;48.722;8.110;2023-03-21T15:47:40;18.60;97.10
7472;DHT22;3777;48.722;8.110;2023-03-21T15:50:10;18.50;98.00
7472;DHT22;3777;48.722;8.110;2023-03-21T15:52:42;18.40;98.80
7472;DHT22;3777;48.722;8.110;2023-03-21T15:55:21;18.40;99.80
7472;DHT22;3777;48.722;8.110;2023-03-21T15:57:51;18.30;99.90
7472;DHT22;3777;48.722;8.110;2023-03-21T16:00:29;18.30;99.90
7472;DHT22;3777;48.722;8.110;2023-03-21T16:02:58;18.20;99.90
7472;DHT22;3777;48.722;8.110;2023-03-21T16:05:30;18.20;99.90
7472;DHT22;3777;48.722;8.110;2023-03-21T16:08:01;17.90;99.50
7472;DHT22;3777;48.722;8.110;2023-03-21T16:10:30;17.70;99.20
7472;DHT22;3777;48.722;8.110;2023-03-21T16:12:58;17.60;99.60
7472;DHT22;3777;48.722;8.110;2023-03-21T16:15:27;17.60;99.80
7472;DHT22;3777;48.722;8.110;2023-03-21T16:17:56;17.60;99.90
7472;DHT22;3777;48.722;8.110;2023-03-21T16:20:24;17.60;99.90
7472;DHT22;3777;48.722;8.110;2023-03-21T16:22:51;17.60;99.90
7472;DHT22;3777;48.722;8.110;2023-03-21T16:25:19;17.60;99.90
7472;DHT22;3777;48.722;8.110;2023-03-21T16:27:46;17.50;99.90
7472;DHT22;3777;48.722;8.110;2023-03-21T16:30:16;17.50;99.90
7472;DHT22;3777;48.722;8.110;2023-03-21T16:32:44;17.50;99.90
7472;DHT22;3777;48.722;8.110;2023-03-21T16:35:12;17.40;99.90
7472;DHT22;3777;48.722;8.110;2023-03-21T16:37:39;17.40;99.90